Ralph Wenz Field
KPNA : now visible

Airfield :











YOU CAN JOIN US ON...

 
LOGIN :

Register | Disclaimer

   EN    FR    IT 

 









Legend :    VFR   Marginal VFR   IFR   Intensive IFR   Very Intensive IFR
Visi :
Ceiling :
>= 8 km
>= 3000ft
5 to 8 km
1000 to 3000 ft
1500m to 5 km
500 to 1000 ft
800 to 1500m
200 to 500 ft
< 800m
< 200 ft
Symbols :   Thunderstorms  Fog  Heavy snow  Heavy precipitations  Wind > 20 kt






- Airport Elevation : 7102 ft


KPNA - Ralph Wenz Field

CURRENT METAR :
  • 180735Z AUTO 31006KT 10SM CLR M23/M26 A3013 RMK AO2 TSNO

EXPIRED METARs :
  • 180715Z AUTO 31006KT 10SM CLR M23/M26 A3013 RMK AO2 TSNO
  • 180655Z AUTO 33004KT 10SM CLR M22/M25 A3012 RMK AO2 TSNO
  • 180635Z AUTO 32009KT 10SM CLR M22/M24 A3011 RMK AO2 TSNO
  • 180615Z AUTO 30006KT 10SM CLR M21/M25 A3011 RMK AO2 TSNO
  • 180555Z AUTO 30007KT 10SM CLR M19/M22 A3011 RMK AO2 TSNO
  • 180515Z AUTO 35004KT 10SM CLR M18/M21 A3010 RMK AO2 TSNO
  • 180455Z AUTO 32003KT 10SM CLR M18/M21 A3009 RMK AO2 TSNO

TAF KPNA
Valid from the 18 at 06:00 until the 19 at 06:00 UTC


180520Z 1806/1906 30006KT P6SM FEW050 FEW200
FM181300 VRB04KT P6SM SKC



MET'MAP, your aeronautical weather chart ! - Copyright ORBIFLY December 2007 - Disclaimer

ORBIFLY MET'MAP TEAM :

Programming & Development : Alexandra Zaïnal
Concept & original design : Baudouin d'Aumeries
Assistance for programming : Marc-Olivier Méhu
Technical & hardware support : Manuel Goepfert

Contact : metmap@orbifly.com




SOURCES & CREDITS :

   NOAA       Earth
Advisory